Search for airport 
image banner adimage banner adimage banner ad
image banner ad

PS57 - Mount Nittany Medical Center

Located in State College, United States

ICAO - PS57, IATA -

Data provided by Airmate  

General information

Coordinates: N40°49'10" W77°50'35"
Elevation is 1152 feet MSL.
Magnetic variation is -11° East
View others Airports in Pennsylvania

Operational data

Special qualification required
Current time UTC:
Current local time:
Weather at : KUNV - University Park ( 3 km )
METAR: KUNV 150715Z AUTO 00000KT 10SM SCT075 SCT090 SCT110 15/14 A2985 RMK AO2 T01450143
TAF: KUNV 150537Z 1506/1606 27005KT 5SM BR SCT001 TEMPO 1508/1512 1/2SM FG OVC001 FM151400 32010G20KT P6SM BKN040 FM160100 32007KT P6SM SCT035
View NOTAMs / SUP AIP / TFR affecting this airport [VIEW]
Communications frequencies: [VIEW]

Runways:

Airport contact information

Address: State College United States

Satellite view of PS57